Time;durP1;ratioP1;P1;durP2;ratioP2;P2;SDS_P1;SDS_P2;PMS_P1;PMS_P2;Temp;Humidity;BMP_temperature;BMP_pressure;BME280_temperature;BME280_humidity;BME280_pressure;Samples;Min_cycle;Max_cycle;Signal;HPM_P1;HPM_P2
2022/08/14 00:01:34;;;;;;;5.72;2.88;;;;;;;20.80;60.46;100169.56;8372943;28;20424;-51
2022/08/14 00:05:34;;;;;;;5.65;3.35;;;;;;;20.75;60.96;100161.97;8371309;28;20044;-53
2022/08/14 00:09:35;;;;;;;4.43;3.00;;;;;;;20.79;60.84;100157.72;8377016;28;20068;-54
2022/08/14 00:13:36;;;;;;;5.60;3.00;;;;;;;20.76;60.76;100154.53;8378944;28;20760;-54
2022/08/14 00:17:37;;;;;;;4.78;3.00;;;;;;;20.73;61.34;100152.22;8379163;28;20037;-50
2022/08/14 00:21:38;;;;;;;5.78;2.95;;;;;;;20.76;61.07;100151.78;8377755;28;20484;-52
2022/08/14 00:25:40;;;;;;;4.65;3.30;;;;;;;20.67;61.67;100144.84;8378592;28;20504;-50
2022/08/14 00:29:40;;;;;;;4.70;3.10;;;;;;;20.61;62.11;100129.22;8378845;28;20044;-50
2022/08/14 00:33:41;;;;;;;4.25;3.20;;;;;;;20.60;62.73;100133.03;8378262;28;20121;-53
2022/08/14 00:37:44;;;;;;;6.15;4.13;;;;;;;20.54;63.37;100136.63;8378394;28;20041;-51
2022/08/14 00:41:46;;;;;;;7.38;3.15;;;;;;;20.52;63.49;100130.53;8377291;28;20077;-51
2022/08/14 00:45:47;;;;;;;4.00;3.45;;;;;;;20.44;63.62;100133.47;8377969;28;20036;-50
2022/08/14 00:49:49;;;;;;;7.82;3.45;;;;;;;20.25;64.57;100124.19;8377953;28;20119;-50
2022/08/14 00:53:50;;;;;;;5.15;3.33;;;;;;;20.18;65.34;100111.53;8376238;28;20429;-50
2022/08/14 00:58:29;;;;;;;8.18;3.83;;;;;;;19.75;66.27;100104.72;8394038;28;20458;-51
2022/08/14 01:02:14;;;;;;;8.18;3.63;;;;;;;19.59;66.56;100094.16;8393440;28;20124;-51
2022/08/14 01:06:15;;;;;;;4.43;3.23;;;;;;;19.28;66.89;100094.75;8394101;28;20029;-50
2022/08/14 01:10:59;;;;;;;5.35;3.55;;;;;;;19.30;67.24;100096.22;8394224;28;20098;-50
2022/08/14 01:14:54;;;;;;;6.82;4.45;;;;;;;19.35;66.76;100085.50;8372715;28;20033;-50
2022/08/14 01:23:14;;;;;;;5.68;3.88;;;;;;;19.35;66.72;100066.31;8377089;28;20044;-52
2022/08/14 01:27:17;;;;;;;5.10;4.05;;;;;;;19.46;67.08;100049.22;8377125;28;20473;-52
2022/08/14 01:31:18;;;;;;;6.43;4.70;;;;;;;19.61;67.23;100050.94;8376549;28;20463;-53
2022/08/14 01:35:19;;;;;;;4.05;3.65;;;;;;;19.76;67.11;100046.91;8377944;28;20297;-51
2022/08/14 01:39:19;;;;;;;7.00;3.88;;;;;;;19.89;67.23;100051.56;8406670;28;20027;-52
2022/08/14 01:43:20;;;;;;;9.43;3.97;;;;;;;19.92;67.26;100034.69;8407868;28;20484;-50
2022/08/14 01:47:20;;;;;;;5.82;4.13;;;;;;;19.95;67.79;100039.75;8426376;28;20518;-53
2022/08/14 01:51:21;;;;;;;7.00;4.63;;;;;;;19.97;67.70;100051.38;8425914;28;20492;-52
2022/08/14 01:55:29;;;;;;;6.25;4.30;;;;;;;19.91;67.71;100041.22;8393230;28;20355;-51
2022/08/14 01:59:32;;;;;;;8.13;4.60;;;;;;;19.91;68.22;100043.97;8379542;28;20028;-52
2022/08/14 02:03:50;;;;;;;4.57;4.20;;;;;;;19.88;68.75;100045.22;8392007;28;20041;-54
2022/08/14 02:07:50;;;;;;;4.53;4.07;;;;;;;19.89;68.96;100046.94;8374700;28;20093;-50
2022/08/14 02:11:51;;;;;;;6.20;4.47;;;;;;;19.63;69.89;100046.06;8375188;28;20040;-54
2022/08/14 02:15:54;;;;;;;12.30;5.05;;;;;;;19.51;70.46;100036.81;8375645;28;20294;-51
2022/08/14 02:19:54;;;;;;;5.35;4.80;;;;;;;19.51;70.40;100039.53;8375661;28;20028;-50
2022/08/14 02:23:55;;;;;;;7.85;5.00;;;;;;;19.41;71.35;100049.03;8374560;28;20071;-52
2022/08/14 02:27:55;;;;;;;5.53;4.63;;;;;;;19.49;70.86;100045.25;8375097;28;20087;-50
2022/08/14 02:31:59;;;;;;;6.38;5.30;;;;;;;19.46;71.37;100042.91;8374359;28;20044;-51
2022/08/14 02:36:02;;;;;;;5.35;4.85;;;;;;;19.37;71.71;100050.47;8374750;28;20048;-51
2022/08/14 02:40:03;;;;;;;6.80;5.47;;;;;;;19.65;72.22;100061.28;8375058;28;20028;-49
2022/08/14 02:44:05;;;;;;;8.15;5.10;;;;;;;19.64;72.41;100047.78;8374225;28;20032;-50
2022/08/14 02:48:06;;;;;;;9.55;5.13;;;;;;;19.43;72.81;100055.13;8374554;28;20036;-50
2022/08/14 02:52:07;;;;;;;5.20;4.63;;;;;;;19.30;73.08;100046.88;8373883;28;20040;-52
2022/08/14 02:56:10;;;;;;;7.38;4.97;;;;;;;18.96;74.44;100049.72;8374472;28;20056;-50
2022/08/14 03:00:12;;;;;;;5.18;4.68;;;;;;;18.66;75.03;100042.03;8352416;28;20341;-53
2022/08/14 03:04:13;;;;;;;5.97;4.65;;;;;;;18.69;74.66;100028.75;8362124;28;20505;-53
2022/08/14 03:08:14;;;;;;;5.90;4.97;;;;;;;18.63;74.53;100021.34;8357040;28;20029;-49
2022/08/14 03:12:14;;;;;;;7.07;5.40;;;;;;;18.37;75.24;100021.25;8340826;28;20040;-51
2022/08/14 03:16:21;;;;;;;6.78;5.35;;;;;;;18.32;75.47;100020.97;8341668;28;20029;-51
2022/08/14 03:20:21;;;;;;;6.10;4.72;;;;;;;18.32;75.63;100018.22;8357388;28;20055;-50
2022/08/14 03:24:22;;;;;;;9.63;5.35;;;;;;;18.27;75.74;100015.22;8364967;28;20089;-50
2022/08/14 03:28:25;;;;;;;6.88;5.43;;;;;;;18.30;76.11;100017.56;8390785;28;20032;-52
2022/08/14 03:32:27;;;;;;;10.73;5.53;;;;;;;18.41;75.87;100008.81;8390500;28;20041;-52
2022/08/14 03:36:30;;;;;;;7.47;5.55;;;;;;;18.53;75.27;100007.19;8391149;28;20431;-50
2022/08/14 03:40:31;;;;;;;6.20;5.60;;;;;;;18.49;75.27;100011.41;8390770;28;20047;-51
2022/08/14 03:44:34;;;;;;;7.53;5.90;;;;;;;18.46;75.80;100008.22;8395621;28;20270;-50
2022/08/14 03:48:34;;;;;;;7.32;6.63;;;;;;;18.37;76.17;100015.75;8396624;28;20073;-53
2022/08/14 03:52:35;;;;;;;9.13;6.67;;;;;;;18.15;76.72;100016.88;8386384;28;20505;-50
2022/08/14 03:56:36;;;;;;;7.35;6.55;;;;;;;18.14;77.05;100015.16;8378878;28;20318;-52
2022/08/14 04:00:38;;;;;;;9.18;5.85;;;;;;;18.20;75.81;100017.09;8361136;28;20037;-51
2022/08/14 04:04:38;;;;;;;7.68;5.80;;;;;;;18.04;76.72;100008.38;8379261;28;20032;-49
2022/08/14 04:08:40;;;;;;;7.20;6.50;;;;;;;18.09;76.52;100006.75;8379663;28;20128;-51
2022/08/14 04:12:40;;;;;;;6.50;5.90;;;;;;;17.57;78.98;100011.81;8378163;28;20047;-49
2022/08/14 04:16:46;;;;;;;10.45;6.68;;;;;;;17.52;78.50;100003.34;8379799;28;20039;-54
2022/08/14 04:20:47;;;;;;;9.38;6.43;;;;;;;17.31;79.62;100006.06;8371128;28;20055;-49
2022/08/14 04:24:47;;;;;;;7.75;6.30;;;;;;;17.37;79.16;100000.69;8349107;28;20037;-50
2022/08/14 04:28:49;;;;;;;10.85;6.05;;;;;;;17.40;79.31;99997.56;8376019;28;20040;-51
2022/08/14 04:32:50;;;;;;;7.18;6.57;;;;;;;17.26;79.96;99992.19;8378596;28;20111;-50
2022/08/14 04:45:39;;;;;;;12.98;6.15;;;;;;;17.53;79.37;99984.03;8369090;28;20028;-52
2022/08/14 04:49:41;;;;;;;7.53;6.10;;;;;;;17.65;78.42;99981.59;8378383;28;20048;-53
2022/08/14 04:53:45;;;;;;;9.32;6.78;;;;;;;17.58;78.69;99976.09;8377193;28;20068;-51
2022/08/14 04:57:47;;;;;;;9.40;5.93;;;;;;;17.74;78.46;99985.88;8378405;28;20143;-52
2022/08/14 05:01:48;;;;;;;10.30;5.93;;;;;;;17.86;77.87;99983.41;8374823;28;20029;-51
2022/08/14 05:05:50;;;;;;;7.03;6.32;;;;;;;18.04;76.64;99976.38;8361892;28;20108;-49
2022/08/14 05:09:51;;;;;;;7.10;6.25;;;;;;;18.23;76.51;99969.31;8374469;28;20033;-50
2022/08/14 05:13:51;;;;;;;7.57;6.20;;;;;;;18.22;76.07;99968.50;8369440;28;20040;-51
2022/08/14 05:17:52;;;;;;;7.83;6.57;;;;;;;18.22;75.95;99963.03;8369041;28;20477;-50
2022/08/14 05:21:57;;;;;;;8.48;6.30;;;;;;;18.45;75.28;99963.56;8369750;28;20271;-52
2022/08/14 05:26:00;;;;;;;8.43;5.55;;;;;;;18.92;74.33;99955.31;8380657;28;20055;-51
2022/08/14 05:30:05;;;;;;;11.02;6.70;;;;;;;19.29;73.55;99946.53;8393901;28;20036;-52
2022/08/14 05:34:08;;;;;;;7.38;5.20;;;;;;;19.73;72.91;99947.75;8380715;28;20037;-50
2022/08/14 05:38:12;;;;;;;5.88;5.38;;;;;;;20.16;71.65;99948.97;8381858;28;20021;-52
2022/08/14 05:42:12;;;;;;;5.80;5.07;;;;;;;20.38;71.20;99953.94;8378394;28;20090;-50
2022/08/14 05:46:14;;;;;;;8.90;5.50;;;;;;;20.79;71.03;99945.28;8376819;28;20041;-49
2022/08/14 05:50:14;;;;;;;8.38;6.00;;;;;;;20.98;70.71;99960.84;8368108;28;20268;-51
2022/08/14 05:54:15;;;;;;;11.10;6.32;;;;;;;21.27;69.79;99949.22;8358485;28;20116;-49
2022/08/14 05:58:15;;;;;;;9.13;6.07;;;;;;;21.42;69.19;99952.50;8354218;28;20041;-49
2022/08/14 06:02:16;;;;;;;9.73;5.78;;;;;;;21.59;69.58;99953.59;8375838;28;20267;-53
2022/08/14 06:06:17;;;;;;;7.57;6.25;;;;;;;21.81;68.88;99952.16;8375112;28;20028;-51
2022/08/14 06:10:18;;;;;;;9.82;6.70;;;;;;;22.13;69.02;99945.47;8375759;28;20120;-51
2022/08/14 06:14:19;;;;;;;9.77;6.97;;;;;;;22.41;68.57;99947.66;8375261;28;20359;-50
2022/08/14 06:18:20;;;;;;;12.25;7.20;;;;;;;22.62;68.96;99944.47;8375984;28;20086;-49
2022/08/14 06:22:20;;;;;;;9.75;6.97;;;;;;;22.83;68.44;99936.53;8346486;28;20060;-49
2022/08/14 06:26:20;;;;;;;8.45;7.57;;;;;;;23.00;68.35;99943.06;8369558;28;20036;-49
2022/08/14 06:30:24;;;;;;;9.15;6.72;;;;;;;22.91;68.67;99938.94;8343742;28;20493;-52
2022/08/14 06:34:24;;;;;;;8.38;7.25;;;;;;;22.84;68.69;99932.69;8341479;28;20025;-50
2022/08/14 06:38:25;;;;;;;9.45;6.70;;;;;;;23.29;68.49;99932.28;8341902;28;20039;-49
2022/08/14 06:42:25;;;;;;;7.57;6.72;;;;;;;23.50;68.04;99931.69;8356913;28;20120;-49
2022/08/14 06:46:28;;;;;;;6.90;6.20;;;;;;;23.92;67.47;99919.47;8341400;28;20067;-53
2022/08/14 06:50:30;;;;;;;11.23;6.93;;;;;;;24.43;66.89;99922.31;8359082;28;20271;-51
2022/08/14 06:54:30;;;;;;;8.25;6.85;;;;;;;24.64;66.25;99924.41;8360720;28;20040;-51
2022/08/14 06:58:31;;;;;;;14.20;6.83;;;;;;;24.97;66.11;99914.28;8347608;28;20052;-50
2022/08/14 07:06:53;;;;;;;9.52;6.53;;;;;;;25.52;64.25;99897.84;8352065;28;20037;-50
2022/08/14 07:10:58;;;;;;;7.88;6.85;;;;;;;25.44;64.40;99901.03;8370859;28;20553;-51
2022/08/14 07:14:58;;;;;;;7.57;6.45;;;;;;;25.57;64.36;99902.63;8354442;28;20044;-50
2022/08/14 07:18:58;;;;;;;7.85;5.88;;;;;;;25.95;62.84;99900.72;8357623;28;20038;-51
2022/08/14 07:23:00;;;;;;;6.77;6.20;;;;;;;26.03;62.99;99897.56;8352760;28;20041;-52
2022/08/14 07:27:01;;;;;;;8.63;6.78;;;;;;;26.18;63.10;99883.91;8356598;28;20276;-49
2022/08/14 07:31:06;;;;;;;6.60;6.00;;;;;;;26.37;62.27;99882.47;8350952;28;20179;-53
2022/08/14 07:35:06;;;;;;;6.97;6.28;;;;;;;26.40;62.51;99879.19;8364210;28;20288;-52
2022/08/14 07:39:07;;;;;;;7.13;6.43;;;;;;;26.50;62.38;99882.06;8366602;28;20163;-52
2022/08/14 07:43:08;;;;;;;6.97;6.03;;;;;;;26.63;62.18;99881.69;8361753;28;20033;-50
2022/08/14 07:47:08;;;;;;;6.95;6.35;;;;;;;26.65;61.46;99884.22;8352114;28;20038;-53
2022/08/14 07:51:09;;;;;;;7.55;6.45;;;;;;;27.01;61.02;99882.69;8369999;28;20055;-53
2022/08/14 07:55:11;;;;;;;6.88;6.28;;;;;;;26.99;61.04;99890.41;8367020;28;20055;-53
2022/08/14 07:59:15;;;;;;;7.80;6.97;;;;;;;27.09;60.94;99888.59;8367785;28;20784;-50
2022/08/14 08:03:16;;;;;;;7.88;6.65;;;;;;;27.34;60.36;99899.09;8360121;28;20448;-51
2022/08/14 08:07:17;;;;;;;7.40;6.07;;;;;;;27.26;60.63;99883.75;8354650;28;20552;-50
2022/08/14 08:11:18;;;;;;;9.30;6.93;;;;;;;27.57;60.46;99882.91;8359384;28;20419;-51
2022/08/14 08:15:20;;;;;;;9.48;6.43;;;;;;;27.83;59.43;99878.38;8360682;28;20509;-50
2022/08/14 08:19:20;;;;;;;7.20;6.45;;;;;;;27.88;58.97;99878.44;8363097;28;20037;-49
2022/08/14 08:23:23;;;;;;;10.10;6.43;;;;;;;27.84;58.51;99882.84;8344949;28;20049;-51
2022/08/14 08:27:23;;;;;;;6.50;5.90;;;;;;;27.94;59.19;99885.72;8355439;28;20151;-49
2022/08/14 08:31:25;;;;;;;10.27;6.68;;;;;;;28.31;58.14;99878.13;8361856;28;20048;-52
2022/08/14 08:35:28;;;;;;;7.47;6.78;;;;;;;28.41;57.48;99878.16;8363592;28;20059;-50
2022/08/14 08:39:28;;;;;;;7.03;6.23;;;;;;;28.44;57.55;99872.03;8346509;28;20123;-50
2022/08/14 08:43:31;;;;;;;9.05;6.75;;;;;;;28.55;57.47;99862.66;8349543;28;20069;-50
2022/08/14 08:47:39;;;;;;;6.68;6.07;;;;;;;28.83;56.98;99852.97;8360639;28;20052;-51
2022/08/14 08:51:40;;;;;;;7.07;5.97;;;;;;;28.95;56.68;99862.75;8356093;28;20045;-50
2022/08/14 08:55:43;;;;;;;7.57;5.95;;;;;;;29.32;55.70;99863.38;8366304;28;20225;-51
2022/08/14 08:59:44;;;;;;;14.17;6.10;;;;;;;29.17;55.63;99855.00;8355381;28;20037;-51
2022/08/14 09:03:44;;;;;;;8.13;6.15;;;;;;;29.53;54.46;99848.31;8365658;28;20123;-52
2022/08/14 09:07:45;;;;;;;7.07;6.00;;;;;;;29.74;54.64;99849.16;8376196;28;20048;-51
2022/08/14 09:11:45;;;;;;;8.07;5.70;;;;;;;29.71;53.90;99853.34;8368476;28;20036;-50
2022/08/14 09:15:48;;;;;;;5.60;5.10;;;;;;;29.94;53.47;99833.22;8374512;28;20037;-50
2022/08/14 09:19:48;;;;;;;5.68;5.00;;;;;;;30.03;52.08;99831.50;8364865;28;20218;-52
2022/08/14 09:23:49;;;;;;;5.65;5.15;;;;;;;30.00;52.51;99825.66;8358745;28;20470;-51
2022/08/14 09:27:49;;;;;;;5.97;5.25;;;;;;;30.49;51.49;99820.19;8371457;28;20436;-51
2022/08/14 09:31:55;;;;;;;5.50;5.00;;;;;;;30.34;52.18;99830.28;8365860;28;20043;-50
2022/08/14 09:36:25;;;;;;;5.50;5.00;;;;;;;30.42;49.61;99824.13;8362297;28;20037;-50
2022/08/14 09:40:43;;;;;;;5.45;4.95;;;;;;;30.94;49.90;99815.16;8364845;28;20048;-48
2022/08/14 09:45:11;;;;;;;5.18;4.70;;;;;;;31.51;49.03;99803.25;8357491;28;20041;-51
2022/08/14 09:49:12;;;;;;;6.28;4.53;;;;;;;32.12;47.26;99804.28;8383232;28;20041;-52
2022/08/14 09:53:17;;;;;;;5.03;4.60;;;;;;;32.96;45.67;99807.03;8389069;28;20471;-51
2022/08/14 09:57:26;;;;;;;4.90;4.40;;;;;;;34.89;42.67;99801.03;8376660;28;20033;-49
2022/08/14 10:01:35;;;;;;;5.07;4.30;;;;;;;35.96;41.51;99796.00;8387290;28;20045;-53
2022/08/14 10:05:36;;;;;;;5.90;3.85;;;;;;;36.09;40.26;99797.03;8388683;28;20048;-53
2022/08/14 10:09:52;;;;;;;4.88;3.40;;;;;;;36.58;38.19;99791.91;8388276;28;20037;-52
2022/08/14 10:13:56;;;;;;;3.75;3.20;;;;;;;37.01;38.34;99777.84;8385230;28;20115;-53
2022/08/14 10:18:13;;;;;;;7.18;3.85;;;;;;;36.89;38.33;99775.69;8389645;28;20036;-50
2022/08/14 10:22:14;;;;;;;4.60;3.55;;;;;;;37.60;37.23;99784.59;8385421;28;20047;-53
2022/08/14 10:26:17;;;;;;;5.53;3.65;;;;;;;37.24;37.47;99771.72;8390304;28;20044;-52
2022/08/14 10:30:19;;;;;;;3.63;2.88;;;;;;;37.75;36.88;99762.34;8383433;28;20048;-50
2022/08/14 10:34:19;;;;;;;3.67;3.38;;;;;;;37.77;36.93;99762.00;8384164;28;20045;-52
2022/08/14 10:38:31;;;;;;;6.07;3.03;;;;;;;38.04;36.47;99758.69;8382080;28;20040;-50
2022/08/14 10:42:38;;;;;;;4.53;3.70;;;;;;;37.13;37.39;99746.97;8390434;28;20112;-52
2022/08/14 10:46:44;;;;;;;4.90;2.85;;;;;;;38.37;35.64;99759.69;8386954;28;20040;-50
2022/08/14 10:50:49;;;;;;;4.55;3.15;;;;;;;37.97;35.66;99755.56;8377022;28;20041;-50
2022/08/14 10:54:51;;;;;;;2.88;2.58;;;;;;;37.75;36.07;99755.84;8381000;28;20051;-52
2022/08/14 10:59:00;;;;;;;4.00;2.50;;;;;;;38.61;34.71;99749.41;8376614;28;20068;-51
2022/08/14 11:03:08;;;;;;;2.63;2.42;;;;;;;38.09;35.04;99755.69;8382282;28;20044;-51
2022/08/14 11:07:13;;;;;;;5.00;2.50;;;;;;;37.37;35.47;99742.50;8385999;28;20059;-53
2022/08/14 11:11:15;;;;;;;4.80;2.85;;;;;;;40.39;33.36;99737.31;8386332;28;20059;-51
2022/08/14 11:15:19;;;;;;;2.85;2.45;;;;;;;38.23;34.77;99719.59;8383380;28;20051;-50
2022/08/14 11:19:22;;;;;;;2.80;2.55;;;;;;;38.46;34.62;99701.13;8387230;28;20049;-51
2022/08/14 11:23:31;;;;;;;2.53;2.33;;;;;;;38.82;34.11;99698.50;8382293;28;20047;-50
2022/08/14 11:27:33;;;;;;;3.33;2.83;;;;;;;38.83;33.71;99700.16;8376976;28;20044;-50
2022/08/14 11:31:36;;;;;;;2.90;2.70;;;;;;;37.56;35.36;99696.94;8384571;28;20032;-50
2022/08/14 11:35:37;;;;;;;4.25;2.67;;;;;;;37.84;35.21;99694.53;8372831;28;20624;-53
2022/08/14 11:39:38;;;;;;;2.70;2.50;;;;;;;38.30;33.53;99685.97;8373723;28;20398;-54
2022/08/14 11:43:41;;;;;;;2.55;2.33;;;;;;;38.16;33.34;99680.56;8362290;28;20398;-53
2022/08/14 11:47:43;;;;;;;2.75;2.55;;;;;;;38.90;33.33;99677.78;8381231;28;20556;-52
2022/08/14 11:51:53;;;;;;;4.28;2.40;;;;;;;38.21;34.24;99677.56;8373182;28;20044;-53
2022/08/14 11:56:03;;;;;;;2.38;2.17;;;;;;;39.34;33.05;99665.72;8341011;28;20107;-51
2022/08/14 12:00:08;;;;;;;2.80;2.60;;;;;;;37.29;34.59;99667.16;8359237;28;20067;-53
2022/08/14 12:04:12;;;;;;;3.72;2.72;;;;;;;36.31;35.95;99673.06;8361188;28;20481;-52
2022/08/14 12:08:13;;;;;;;3.05;2.85;;;;;;;34.74;37.81;99655.28;8359520;28;20033;-53
2022/08/14 12:12:17;;;;;;;4.38;2.90;;;;;;;33.67;38.53;99642.03;8368498;28;20404;-53
2022/08/14 12:16:20;;;;;;;3.25;2.65;;;;;;;33.43;39.05;99635.81;8367123;28;20056;-53
2022/08/14 12:20:28;;;;;;;3.03;2.58;;;;;;;33.48;39.35;99632.91;8369650;28;20033;-53
2022/08/14 12:24:29;;;;;;;3.80;2.45;;;;;;;33.45;40.35;99613.91;8357962;28;20103;-52
2022/08/14 12:28:29;;;;;;;3.15;2.85;;;;;;;33.84;40.02;99616.97;8357763;28;20168;-51
2022/08/14 12:32:39;;;;;;;4.80;2.97;;;;;;;33.53;40.00;99607.56;8362683;28;20049;-51
2022/08/14 12:36:42;;;;;;;4.82;2.78;;;;;;;33.56;39.46;99606.94;8358312;28;20135;-51
2022/08/14 12:40:52;;;;;;;4.70;3.05;;;;;;;34.32;39.27;99593.97;8373755;28;20052;-50
2022/08/14 12:44:57;;;;;;;3.53;3.22;;;;;;;34.04;39.76;99589.63;8366826;28;20039;-51
2022/08/14 12:49:03;;;;;;;3.20;2.90;;;;;;;34.26;38.95;99584.84;8361764;28;20486;-54
2022/08/14 12:53:03;;;;;;;3.53;3.10;;;;;;;34.05;39.86;99585.69;8355558;28;20043;-52
2022/08/14 12:57:12;;;;;;;3.85;3.05;;;;;;;33.53;39.80;99590.75;8371092;28;20045;-53
2022/08/14 13:01:18;;;;;;;3.10;2.90;;;;;;;33.72;40.96;99587.78;8372574;28;20492;-54
2022/08/14 13:05:21;;;;;;;5.47;3.10;;;;;;;33.24;40.86;99578.97;8365515;28;20037;-50
2022/08/14 13:09:26;;;;;;;4.30;3.17;;;;;;;32.87;41.44;99567.97;8350306;28;20443;-52
2022/08/14 13:13:33;;;;;;;4.00;3.10;;;;;;;33.06;40.87;99551.94;8344730;28;20037;-54
2022/08/14 13:17:39;;;;;;;3.42;3.13;;;;;;;33.12;40.05;99544.25;8395155;28;20040;-53
2022/08/14 13:21:42;;;;;;;3.42;3.13;;;;;;;33.29;40.85;99550.84;8357356;28;20044;-52
2022/08/14 13:25:43;;;;;;;4.95;3.08;;;;;;;33.31;40.37;99537.38;8353493;28;20051;-54
2022/08/14 13:29:44;;;;;;;3.15;2.85;;;;;;;33.37;40.26;99527.75;8363986;28;20040;-53
2022/08/14 13:33:45;;;;;;;4.97;3.17;;;;;;;33.92;39.43;99526.50;8362689;28;20506;-54
2022/08/14 13:37:48;;;;;;;3.80;2.85;;;;;;;33.76;40.59;99529.94;8362781;28;20114;-51
2022/08/14 13:41:49;;;;;;;3.00;2.65;;;;;;;33.88;39.10;99528.25;8349826;28;20393;-51
2022/08/14 13:45:51;;;;;;;3.03;2.80;;;;;;;33.28;39.42;99518.38;8368385;28;20064;-53
2022/08/14 13:49:52;;;;;;;2.60;2.40;;;;;;;33.69;38.74;99516.34;8368222;28;20048;-52
2022/08/14 13:53:55;;;;;;;3.25;2.95;;;;;;;33.67;40.00;99510.22;8356344;28;20041;-54
2022/08/14 13:57:58;;;;;;;3.97;3.10;;;;;;;33.55;40.81;99518.38;8374861;28;20111;-50
2022/08/14 14:02:04;;;;;;;3.40;3.10;;;;;;;32.93;41.20;99499.50;8363818;28;20064;-51
2022/08/14 14:06:06;;;;;;;3.00;2.70;;;;;;;32.84;41.47;99484.53;8353070;28;20041;-50
2022/08/14 14:10:08;;;;;;;3.00;2.80;;;;;;;32.74;42.04;99497.91;8353301;28;20482;-52
2022/08/14 14:14:10;;;;;;;7.28;3.38;;;;;;;33.12;40.85;99488.19;8367114;28;20029;-50
2022/08/14 14:18:12;;;;;;;2.95;2.42;;;;;;;33.67;38.12;99492.56;8355930;28;20572;-53
2022/08/14 14:22:14;;;;;;;3.92;2.58;;;;;;;33.46;38.12;99478.22;8372378;28;20048;-53
2022/08/14 14:26:17;;;;;;;4.23;2.70;;;;;;;33.47;38.55;99479.00;8376893;28;20052;-50
2022/08/14 14:30:18;;;;;;;3.33;2.60;;;;;;;33.61;39.77;99475.00;8361396;28;20049;-52
2022/08/14 14:34:23;;;;;;;3.20;2.63;;;;;;;33.42;38.99;99479.16;8356077;28;20041;-50
2022/08/14 14:38:26;;;;;;;2.72;2.30;;;;;;;33.23;38.92;99470.00;8360796;28;20413;-51
2022/08/14 14:42:28;;;;;;;3.55;2.50;;;;;;;33.34;39.18;99475.09;8366583;28;20067;-51
2022/08/14 14:46:34;;;;;;;2.75;2.30;;;;;;;33.24;39.03;99468.88;8352517;28;20119;-54
2022/08/14 14:50:38;;;;;;;3.08;2.28;;;;;;;33.12;39.01;99461.00;8349870;28;20148;-50
2022/08/14 14:54:39;;;;;;;2.97;2.78;;;;;;;33.44;38.70;99452.44;8348782;28;20041;-51
2022/08/14 14:58:41;;;;;;;3.05;2.85;;;;;;;33.69;40.31;99459.41;8356692;28;20043;-50
2022/08/14 15:02:48;;;;;;;3.38;2.90;;;;;;;33.60;39.87;99456.53;8347101;28;20044;-52
2022/08/14 15:06:48;;;;;;;3.83;2.83;;;;;;;33.61;39.73;99449.78;8358635;28;20041;-50
2022/08/14 15:10:49;;;;;;;2.88;2.67;;;;;;;33.26;39.69;99450.59;8351646;28;20525;-50
2022/08/14 15:14:49;;;;;;;3.40;2.90;;;;;;;33.41;40.35;99441.88;8348595;28;20049;-53
2022/08/14 15:18:50;;;;;;;3.28;2.97;;;;;;;33.56;40.11;99449.91;8355299;28;20388;-54
2022/08/14 15:22:50;;;;;;;3.67;2.87;;;;;;;33.37;40.13;99438.03;8347467;28;20493;-54
2022/08/14 15:26:51;;;;;;;3.15;2.85;;;;;;;33.19;40.17;99438.16;8354113;28;20288;-52
2022/08/14 15:30:53;;;;;;;2.97;2.60;;;;;;;33.18;40.34;99431.72;8353428;28;20040;-53
2022/08/14 15:34:53;;;;;;;5.13;2.67;;;;;;;32.86;40.55;99429.06;8345705;28;20276;-51
2022/08/14 15:38:55;;;;;;;3.15;2.70;;;;;;;32.77;40.80;99425.31;8363970;28;20033;-52
2022/08/14 15:42:56;;;;;;;2.65;2.40;;;;;;;33.08;39.59;99426.34;8377420;28;20037;-50
2022/08/14 15:46:58;;;;;;;2.90;2.58;;;;;;;33.19;40.72;99416.56;8356056;28;20699;-54
2022/08/14 15:50:59;;;;;;;2.80;2.60;;;;;;;33.13;39.76;99425.41;8356620;28;20037;-50
2022/08/14 15:55:00;;;;;;;3.47;2.88;;;;;;;33.18;40.14;99414.91;8355064;28;20044;-50
2022/08/14 15:59:00;;;;;;;4.80;2.53;;;;;;;33.12;40.37;99409.75;8363218;28;20040;-53
2022/08/14 16:03:02;;;;;;;3.63;2.37;;;;;;;33.25;39.52;99412.50;8352137;28;20470;-54
2022/08/14 16:07:03;;;;;;;3.17;2.88;;;;;;;33.23;39.59;99406.38;8349555;28;20395;-53
2022/08/14 16:11:06;;;;;;;5.50;2.63;;;;;;;33.06;39.64;99400.63;8358825;28;20037;-53
2022/08/14 16:15:07;;;;;;;2.65;2.45;;;;;;;32.98;40.05;99404.16;8367993;28;20036;-54
2022/08/14 16:19:09;;;;;;;4.78;2.70;;;;;;;32.90;40.45;99404.09;8361124;28;20032;-54
2022/08/14 16:23:11;;;;;;;3.20;3.00;;;;;;;32.87;40.67;99402.72;8371275;28;20053;-53
2022/08/14 16:27:11;;;;;;;3.30;3.00;;;;;;;32.73;41.08;99396.28;8360934;28;20073;-54
2022/08/14 16:31:12;;;;;;;2.60;2.40;;;;;;;32.67;41.25;99391.09;8361325;28;20048;-54
2022/08/14 16:35:12;;;;;;;3.60;2.67;;;;;;;32.73;41.18;99390.69;8352210;28;20040;-52
2022/08/14 16:39:13;;;;;;;5.53;2.92;;;;;;;32.66;41.79;99390.28;8367973;28;20060;-54
2022/08/14 16:43:14;;;;;;;3.55;3.10;;;;;;;32.56;41.83;99378.47;8357494;28;20044;-53
2022/08/14 16:47:16;;;;;;;3.83;3.20;;;;;;;32.52;42.02;99383.84;8358424;28;20057;-53
2022/08/14 16:51:16;;;;;;;4.03;3.05;;;;;;;32.42;42.03;99375.66;8365750;28;20052;-52
2022/08/14 16:55:17;;;;;;;3.70;2.90;;;;;;;32.52;42.14;99375.47;8358479;28;20029;-53
2022/08/14 16:59:19;;;;;;;3.17;2.97;;;;;;;32.52;41.71;99371.81;8362636;28;20332;-53
2022/08/14 17:03:19;;;;;;;3.30;3.00;;;;;;;32.48;41.48;99366.03;8367408;28;20762;-52
2022/08/14 17:07:20;;;;;;;3.22;2.85;;;;;;;32.38;41.57;99369.00;8360088;28;20385;-53
2022/08/14 17:11:21;;;;;;;4.70;2.97;;;;;;;32.34;42.11;99362.38;8360107;28;20064;-53
2022/08/14 17:15:22;;;;;;;5.38;3.13;;;;;;;32.30;41.67;99358.53;8359374;28;20476;-53
2022/08/14 17:19:23;;;;;;;3.72;3.42;;;;;;;32.23;41.81;99358.09;8365666;28;20133;-50
2022/08/14 17:23:23;;;;;;;5.75;3.55;;;;;;;32.13;42.45;99370.34;8353718;28;20064;-51
2022/08/14 17:27:24;;;;;;;5.07;3.90;;;;;;;32.04;42.21;99357.34;8346183;28;20048;-54
2022/08/14 17:31:30;;;;;;;3.35;2.75;;;;;;;32.00;42.25;99357.16;8350266;28;20064;-53
2022/08/14 17:35:33;;;;;;;4.35;3.20;;;;;;;31.86;42.78;99352.66;8361531;28;20047;-54
2022/08/14 17:39:34;;;;;;;3.92;3.50;;;;;;;31.61;43.27;99351.13;8354855;28;20044;-51
2022/08/14 17:43:34;;;;;;;3.80;3.50;;;;;;;31.40;43.87;99347.03;8355652;28;20680;-53
2022/08/14 17:47:35;;;;;;;7.80;3.47;;;;;;;31.37;43.88;99355.16;8352369;28;20055;-52
2022/08/14 17:52:11;;;;;;;4.88;3.50;;;;;;;31.25;43.88;99352.00;8353036;28;20072;-51
2022/08/14 17:56:11;;;;;;;3.85;3.22;;;;;;;31.12;44.01;99358.34;8348838;28;20045;-51
2022/08/14 18:00:15;;;;;;;3.38;3.08;;;;;;;31.08;43.76;99354.50;8357186;28;20569;-51
2022/08/14 18:04:17;;;;;;;3.55;3.20;;;;;;;30.91;43.84;99362.56;8353022;28;20439;-51
2022/08/14 18:08:19;;;;;;;6.65;3.03;;;;;;;30.86;43.46;99355.09;8352459;28;20089;-51
2022/08/14 18:12:21;;;;;;;3.13;2.83;;;;;;;30.68;43.56;99358.69;8357641;28;20105;-50
2022/08/14 18:16:22;;;;;;;4.82;3.22;;;;;;;30.54;44.02;99354.13;8364704;28;20040;-52
2022/08/14 18:20:24;;;;;;;5.72;3.20;;;;;;;30.43;44.44;99357.03;8354046;28;20041;-50
2022/08/14 18:24:26;;;;;;;5.30;2.95;;;;;;;30.10;45.54;99362.72;8347033;28;20049;-51
2022/08/14 18:28:31;;;;;;;7.50;3.50;;;;;;;29.79;46.45;99362.19;8369991;28;20052;-54
2022/08/14 18:32:39;;;;;;;4.97;3.35;;;;;;;29.85;45.95;99374.94;8358908;28;20048;-53
2022/08/14 18:36:55;;;;;;;8.05;3.47;;;;;;;29.76;46.30;99365.56;8353609;28;20095;-51
2022/08/14 18:41:30;;;;;;;10.23;3.05;;;;;;;29.65;45.97;99358.44;8334864;28;20326;-52
2022/08/14 18:45:33;;;;;;;6.13;3.03;;;;;;;29.56;46.19;99362.09;8374486;28;20046;-50
2022/08/14 18:54:06;;;;;;;7.63;3.90;;;;;;;28.43;50.91;99361.41;8343359;27;20396;-51
2022/08/14 19:06:42;;;;;;;12.27;3.83;;;;;;;28.60;49.25;99364.69;8480480;27;20406;-51
2022/08/14 19:10:46;;;;;;;10.27;3.53;;;;;;;28.49;50.95;99363.88;8481530;27;20103;-49
2022/08/14 19:14:46;;;;;;;4.33;3.30;;;;;;;28.22;50.97;99362.59;8480933;27;20027;-52
2022/08/14 19:18:57;;;;;;;3.72;3.42;;;;;;;28.05;50.82;99362.91;8465035;27;20043;-49
2022/08/14 19:23:15;;;;;;;5.80;3.33;;;;;;;27.85;51.03;99357.38;8478131;27;20023;-50
2022/08/14 19:27:19;;;;;;;4.80;3.10;;;;;;;27.62;51.41;99352.41;8467737;27;20530;-49
2022/08/14 19:39:53;;;;;;;9.77;3.58;;;;;;;27.63;50.86;99362.41;8386024;27;20441;-52